Time;durP1;ratioP1;P1;durP2;ratioP2;P2;SDS_P1;SDS_P2;PMS_P1;PMS_P2;Temp;Humidity;BMP_temperature;BMP_pressure;BME280_temperature;BME280_humidity;BME280_pressure;Samples;Min_cycle;Max_cycle;Signal;HPM_P1;HPM_P2
2022/12/27 00:00:12;;;;;;;0.70;0.70;;;;;;;9.56;98.38;96207.88;6124391;23;20183;-82
2022/12/27 00:02:39;;;;;;;1.30;0.70;;;;;;;9.54;98.46;96205.47;6124405;23;20206;-83
2022/12/27 00:05:09;;;;;;;0.97;0.80;;;;;;;9.53;96.63;96208.19;6123279;23;20804;-82
2022/12/27 00:07:35;;;;;;;1.00;0.90;;;;;;;9.49;97.06;96207.69;6123379;23;20179;-83
2022/12/27 00:10:02;;;;;;;0.93;0.70;;;;;;;9.44;96.61;96209.09;6123646;23;20618;-82
2022/12/27 00:12:28;;;;;;;1.53;0.70;;;;;;;9.44;97.12;96215.03;6124495;23;20255;-82
2022/12/27 00:14:55;;;;;;;0.80;0.80;;;;;;;9.24;96.94;96218.78;6123555;23;20182;-83
2022/12/27 00:17:21;;;;;;;0.90;0.90;;;;;;;9.26;96.27;96222.00;6124213;23;20565;-82
2022/12/27 00:19:49;;;;;;;0.83;0.83;;;;;;;9.20;96.13;96222.66;6123089;23;20183;-84
2022/12/27 00:22:16;;;;;;;1.03;0.80;;;;;;;9.20;95.02;96230.34;6123353;23;20680;-82
2022/12/27 00:24:43;;;;;;;1.50;0.70;;;;;;;9.28;94.56;96238.91;6123106;23;20199;-83
2022/12/27 00:27:09;;;;;;;0.80;0.70;;;;;;;9.23;93.88;96233.44;6123564;23;20179;-82
2022/12/27 00:29:36;;;;;;;1.00;0.80;;;;;;;9.25;93.48;96235.81;6124204;23;20198;-83
2022/12/27 00:32:02;;;;;;;1.17;0.73;;;;;;;9.29;93.70;96247.41;6123945;23;20250;-83
2022/12/27 00:34:28;;;;;;;1.20;0.70;;;;;;;9.23;93.55;96258.31;6124206;23;20206;-83
2022/12/27 00:36:55;;;;;;;1.83;0.80;;;;;;;9.25;94.53;96262.31;6124282;23;20176;-82
2022/12/27 00:39:23;;;;;;;0.50;0.50;;;;;;;9.35;93.34;96264.81;6123636;23;20240;-82
2022/12/27 00:41:49;;;;;;;0.80;0.80;;;;;;;9.41;93.27;96274.47;6123643;23;20672;-82
2022/12/27 00:44:16;;;;;;;2.30;0.70;;;;;;;9.42;92.47;96281.25;6124567;23;20199;-82
2022/12/27 00:46:42;;;;;;;1.30;0.70;;;;;;;9.40;92.77;96280.59;6123635;23;20521;-82
2022/12/27 00:49:09;;;;;;;0.70;0.70;;;;;;;9.33;91.93;96290.66;6124260;23;20180;-83
2022/12/27 00:51:36;;;;;;;1.43;0.90;;;;;;;9.26;91.34;96299.09;6123516;23;20183;-82
2022/12/27 00:54:02;;;;;;;1.13;0.90;;;;;;;9.10;90.71;96296.44;6123524;23;20179;-82
2022/12/27 00:56:30;;;;;;;1.70;0.90;;;;;;;8.99;89.65;96288.00;6123367;23;20180;-83
2022/12/27 00:58:59;;;;;;;0.90;0.80;;;;;;;8.95;89.33;96296.16;6123585;23;20178;-82
2022/12/27 01:01:28;;;;;;;0.90;0.80;;;;;;;8.92;88.80;96294.69;6123459;23;20163;-82
2022/12/27 01:03:56;;;;;;;3.43;0.90;;;;;;;8.82;87.58;96299.13;6123716;23;20176;-83
2022/12/27 01:06:24;;;;;;;1.27;0.83;;;;;;;8.78;87.02;96312.38;6123468;23;20645;-83
2022/12/27 01:08:51;;;;;;;1.17;0.80;;;;;;;8.78;85.95;96314.97;6123352;23;20176;-83
2022/12/27 01:11:18;;;;;;;1.17;0.90;;;;;;;8.69;85.95;96308.94;6123941;23;20175;-82
2022/12/27 01:13:46;;;;;;;1.27;0.97;;;;;;;8.69;85.20;96310.69;6123653;23;20234;-83
2022/12/27 01:16:14;;;;;;;1.70;0.90;;;;;;;8.73;84.35;96314.59;6122557;23;20180;-83
2022/12/27 01:18:41;;;;;;;2.30;1.00;;;;;;;8.75;84.25;96321.19;6123130;23;20175;-83
2022/12/27 01:21:12;;;;;;;1.63;1.00;;;;;;;8.70;84.33;96322.56;6122995;23;20190;-81
2022/12/27 01:23:39;;;;;;;0.97;0.90;;;;;;;8.48;83.23;96326.38;6123237;23;20946;-85
2022/12/27 01:26:08;;;;;;;1.43;1.00;;;;;;;8.50;83.88;96345.81;6123959;23;20227;-83
2022/12/27 01:28:34;;;;;;;2.60;0.90;;;;;;;8.46;82.44;96352.22;6123570;23;20176;-82
2022/12/27 01:31:05;;;;;;;3.83;0.97;;;;;;;8.44;81.86;96359.25;6123500;23;20179;-82
2022/12/27 01:33:32;;;;;;;1.27;0.90;;;;;;;8.29;82.38;96361.41;6123966;23;20246;-83
2022/12/27 01:36:06;;;;;;;1.20;1.00;;;;;;;8.31;83.30;96374.91;6123597;23;20179;-82
2022/12/27 01:38:33;;;;;;;0.97;0.93;;;;;;;8.35;83.51;96378.03;6123666;23;20164;-82
2022/12/27 01:42:50;;;;;;;1.70;0.80;;;;;;;8.43;82.03;96387.59;6124154;23;20230;-83
2022/12/27 01:43:44;;;;;;;0.80;0.80;;;;;;;8.50;82.09;96391.19;6123114;23;20200;-83
2022/12/27 01:46:13;;;;;;;1.83;0.93;;;;;;;8.59;80.74;96386.03;6124015;23;20569;-81
2022/12/27 01:48:39;;;;;;;2.00;0.90;;;;;;;8.61;81.47;96396.16;6123121;23;20211;-81
2022/12/27 01:51:06;;;;;;;0.90;0.80;;;;;;;8.49;81.08;96392.16;6123714;23;20876;-83
2022/12/27 01:53:37;;;;;;;1.13;0.83;;;;;;;8.47;81.13;96392.28;6124104;23;20195;-83
2022/12/27 01:56:06;;;;;;;2.00;0.90;;;;;;;8.48;81.02;96395.66;6123519;23;20175;-82
2022/12/27 01:58:35;;;;;;;1.03;0.90;;;;;;;8.46;80.93;96390.69;6123656;23;20176;-83
2022/12/27 02:01:03;;;;;;;1.70;1.17;;;;;;;8.42;81.90;96394.50;6124194;23;20660;-83
2022/12/27 02:03:40;;;;;;;1.23;0.90;;;;;;;8.46;80.87;96395.84;6123086;23;20199;-82
2022/12/27 02:06:09;;;;;;;1.23;0.90;;;;;;;8.53;81.28;96396.84;6129581;23;20249;-83
2022/12/27 02:08:43;;;;;;;1.33;0.90;;;;;;;8.55;81.19;96400.09;6125030;23;20182;-84
2022/12/27 02:11:12;;;;;;;1.77;1.10;;;;;;;8.61;80.19;96399.53;6125280;23;20668;-82
2022/12/27 02:13:42;;;;;;;1.67;1.00;;;;;;;8.57;82.28;96407.66;6124553;23;20258;-83
2022/12/27 02:16:14;;;;;;;2.33;0.90;;;;;;;8.54;81.58;96395.91;6125917;23;20180;-83
2022/12/27 02:18:42;;;;;;;1.57;1.00;;;;;;;8.57;80.82;96399.94;6126293;23;20176;-83
2022/12/27 02:21:39;;;;;;;1.13;1.03;;;;;;;8.55;80.54;96396.72;6125689;23;20719;-83
2022/12/27 02:24:24;;;;;;;1.40;1.30;;;;;;;8.56;80.50;96396.56;6126815;23;20234;-82
2022/12/27 02:27:02;;;;;;;3.40;0.90;;;;;;;8.57;81.65;96407.66;6126423;23;20156;-82
2022/12/27 02:29:51;;;;;;;1.50;1.10;;;;;;;8.50;81.37;96398.88;6126307;23;20168;-82
2022/12/27 02:32:24;;;;;;;3.23;1.17;;;;;;;8.56;81.08;96400.91;6127235;23;20199;-83
2022/12/27 02:34:59;;;;;;;1.30;1.10;;;;;;;8.51;81.58;96406.44;6126619;23;20160;-82
2022/12/27 02:37:30;;;;;;;0.90;0.90;;;;;;;8.53;82.04;96411.44;6126060;23;20166;-81
2022/12/27 02:53:02;;;;;;;1.00;0.90;;;;;;;8.55;80.62;96414.69;6124201;23;20244;-82
2022/12/27 02:54:06;;;;;;;2.10;1.20;;;;;;;8.31;79.78;96436.50;6124421;23;20182;-83
2022/12/27 03:03:19;;;;;;;1.27;1.00;;;;;;;8.43;80.24;96452.56;6124760;23;20200;-82
2022/12/27 03:05:42;;;;;;;1.57;1.20;;;;;;;8.24;78.15;96465.44;6123936;23;20738;-82
2022/12/27 03:08:16;;;;;;;1.87;1.20;;;;;;;8.04;77.08;96464.69;6125019;23;20160;-81
2022/12/27 03:16:31;;;;;;;1.50;1.03;;;;;;;7.72;74.93;96475.25;6124553;23;20252;-81
2022/12/27 03:19:11;;;;;;;3.20;1.30;;;;;;;7.66;75.93;96475.00;6125197;23;20164;-83
2022/12/27 03:27:20;;;;;;;1.43;0.80;;;;;;;7.83;73.94;96494.81;6124806;23;20210;-83
2022/12/27 03:35:27;;;;;;;0.90;0.90;;;;;;;7.83;73.66;96515.31;6125263;23;20154;-82
2022/12/27 03:38:04;;;;;;;2.50;1.00;;;;;;;7.90;73.61;96524.88;6124999;23;20163;-83
2022/12/27 03:43:09;;;;;;;2.73;0.97;;;;;;;7.88;74.42;96521.69;6125138;23;20163;-82
2022/12/27 03:43:32;;;;;;;1.93;1.00;;;;;;;7.86;73.25;96528.69;6123930;23;20250;-83
2022/12/27 03:49:03;;;;;;;3.13;1.00;;;;;;;7.77;75.22;96551.75;6124034;23;20167;-82
2022/12/27 03:51:36;;;;;;;1.63;1.07;;;;;;;7.88;74.41;96547.31;6124459;23;20833;-82
2022/12/27 03:54:09;;;;;;;2.10;0.90;;;;;;;7.90;74.58;96553.09;6124807;23;20159;-82
2022/12/27 03:56:37;;;;;;;0.90;0.90;;;;;;;7.86;73.82;96556.91;6124179;23;20167;-83
2022/12/27 03:59:05;;;;;;;0.97;0.90;;;;;;;7.90;74.21;96565.91;6124079;23;20179;-83
2022/12/27 04:01:31;;;;;;;1.10;1.00;;;;;;;7.92;74.21;96576.84;6124193;23;20179;-82
2022/12/27 04:03:57;;;;;;;1.70;1.10;;;;;;;7.96;74.51;96585.09;6123962;23;20274;-83
2022/12/27 04:06:24;;;;;;;1.17;1.07;;;;;;;7.91;73.35;96597.50;6123426;23;20218;-82
2022/12/27 04:36:13;;;;;;;1.23;0.90;;;;;;;7.14;66.55;96628.91;6124431;23;20160;-83
2022/12/27 04:38:40;;;;;;;1.23;0.90;;;;;;;7.13;66.85;96636.72;6124018;23;20187;-81
2022/12/27 04:55:13;;;;;;;1.17;0.93;;;;;;;7.17;65.04;96646.59;6124757;23;20613;-83
2022/12/27 04:57:41;;;;;;;1.63;1.00;;;;;;;7.16;65.31;96644.97;6123945;23;20168;-83
2022/12/27 05:02:52;;;;;;;0.90;0.80;;;;;;;7.05;64.03;96652.75;6123309;23;20720;-82
2022/12/27 05:05:19;;;;;;;1.40;1.10;;;;;;;7.04;64.28;96658.00;6123968;23;20210;-82
2022/12/27 05:15:59;;;;;;;4.37;1.10;;;;;;;7.06;64.26;96687.66;6123488;23;20162;-83
2022/12/27 05:18:26;;;;;;;1.67;1.00;;;;;;;7.00;63.29;96688.16;6122488;23;20183;-83
2022/12/27 05:20:53;;;;;;;0.87;0.80;;;;;;;6.97;63.67;96690.97;6123126;23;20230;-82
2022/12/27 05:26:04;;;;;;;1.33;0.80;;;;;;;7.00;62.78;96692.47;6124248;23;20219;-83
2022/12/27 05:28:31;;;;;;;1.60;0.90;;;;;;;6.97;62.64;96692.72;6122887;23;20556;-82
2022/12/27 05:31:01;;;;;;;0.93;0.90;;;;;;;6.99;62.44;96708.75;6118093;23;20180;-83
2022/12/27 05:33:31;;;;;;;1.37;0.80;;;;;;;6.93;61.79;96700.66;6114600;23;20207;-81
2022/12/27 05:35:59;;;;;;;2.20;0.83;;;;;;;6.99;63.17;96693.41;6125448;23;20191;-82
2022/12/27 05:38:25;;;;;;;3.60;0.90;;;;;;;6.97;60.85;96708.88;6126761;23;20156;-82
2022/12/27 05:40:56;;;;;;;1.47;0.73;;;;;;;6.88;61.02;96713.03;6125433;23;20543;-81
2022/12/27 05:43:23;;;;;;;2.33;1.00;;;;;;;6.92;61.26;96714.41;6125131;23;20529;-82
2022/12/27 05:45:50;;;;;;;2.17;0.87;;;;;;;6.94;62.40;96715.06;6125383;23;20203;-82
2022/12/27 05:48:17;;;;;;;0.80;0.70;;;;;;;6.89;61.86;96716.41;6125026;23;20649;-80
2022/12/27 05:50:43;;;;;;;4.93;1.20;;;;;;;6.87;61.96;96713.16;6125593;23;20184;-82
2022/12/27 05:53:10;;;;;;;1.27;0.70;;;;;;;6.84;62.59;96708.28;6125972;23;20199;-82
2022/12/27 05:55:36;;;;;;;2.17;1.00;;;;;;;6.81;62.83;96717.03;6127777;23;20175;-82
2022/12/27 05:58:03;;;;;;;1.83;0.90;;;;;;;6.76;62.84;96719.13;6127244;23;20187;-83
2022/12/27 06:00:29;;;;;;;1.73;0.90;;;;;;;6.79;62.55;96720.63;6124726;23;20184;-82
2022/12/27 06:02:57;;;;;;;2.43;1.00;;;;;;;6.72;62.39;96717.78;6124787;23;20204;-81
2022/12/27 06:05:24;;;;;;;3.67;1.00;;;;;;;6.69;62.46;96714.66;6125083;23;20567;-82
2022/12/27 06:07:50;;;;;;;4.07;1.00;;;;;;;6.65;63.38;96723.50;6126750;23;20242;-82
2022/12/27 06:10:17;;;;;;;7.97;2.33;;;;;;;6.62;65.69;96718.63;6127080;23;20161;-82
2022/12/27 06:12:43;;;;;;;7.07;2.60;;;;;;;6.68;66.92;96713.03;6126353;23;20200;-82
2022/12/27 06:15:10;;;;;;;3.23;1.83;;;;;;;6.72;65.84;96707.56;6126631;23;20177;-83
2022/12/27 06:17:37;;;;;;;2.23;1.23;;;;;;;6.79;65.36;96706.09;6126130;23;20168;-84
2022/12/27 06:20:06;;;;;;;1.53;1.20;;;;;;;6.87;64.43;96708.84;6126985;23;20179;-83
2022/12/27 06:22:32;;;;;;;2.30;0.90;;;;;;;6.84;63.97;96715.97;6125641;23;20195;-83
2022/12/27 06:24:58;;;;;;;2.03;1.50;;;;;;;6.82;64.01;96708.41;6126837;23;20278;-81
2022/12/27 06:27:25;;;;;;;8.50;6.07;;;;;;;6.81;64.07;96708.53;6125878;23;20246;-82
2022/12/27 06:29:51;;;;;;;4.27;2.37;;;;;;;6.81;63.90;96713.66;6126104;23;20183;-83
2022/12/27 06:32:17;;;;;;;2.70;1.40;;;;;;;6.79;64.23;96724.00;6126689;23;20510;-82
2022/12/27 06:34:44;;;;;;;2.77;1.20;;;;;;;6.87;64.27;96731.06;6126058;23;20182;-83
2022/12/27 06:37:22;;;;;;;1.30;1.20;;;;;;;6.90;64.64;96728.28;6127157;23;20164;-83
2022/12/27 06:39:49;;;;;;;1.37;1.17;;;;;;;6.92;64.84;96722.09;6126164;23;20246;-83
2022/12/27 06:42:37;;;;;;;2.70;1.00;;;;;;;6.94;65.32;96725.31;6127215;23;20195;-84
2022/12/27 06:45:05;;;;;;;1.77;1.20;;;;;;;6.82;65.65;96717.84;6126167;23;20160;-85
2022/12/27 06:47:32;;;;;;;2.27;1.40;;;;;;;6.74;66.76;96721.00;6125988;23;20254;-85
2022/12/27 06:49:58;;;;;;;2.33;1.40;;;;;;;6.77;66.83;96722.50;6127022;23;20176;-85
2022/12/27 06:52:26;;;;;;;2.53;1.77;;;;;;;6.84;67.04;96721.09;6125396;23;20199;-85
2022/12/27 06:54:52;;;;;;;1.93;1.60;;;;;;;6.80;67.03;96725.63;6110672;23;20194;-85
2022/12/27 06:57:19;;;;;;;4.27;2.87;;;;;;;6.83;67.62;96722.03;6121435;23;20208;-86
2022/12/27 06:59:45;;;;;;;4.37;2.90;;;;;;;6.71;68.17;96728.16;6124450;23;20509;-84
2022/12/27 07:02:12;;;;;;;4.20;2.30;;;;;;;6.71;68.73;96733.25;6125557;23;20195;-84
2022/12/27 07:04:38;;;;;;;2.60;1.83;;;;;;;6.69;68.64;96733.38;6123897;23;20180;-83
2022/12/27 07:07:04;;;;;;;11.90;8.93;;;;;;;6.70;68.85;96729.06;6125631;23;20188;-83
2022/12/27 07:09:32;;;;;;;28.17;20.13;;;;;;;6.77;68.62;96740.41;6123896;23;20179;-84
2022/12/27 07:11:58;;;;;;;11.53;8.80;;;;;;;6.82;68.77;96734.00;6125086;23;20666;-85
2022/12/27 07:14:25;;;;;;;3.53;3.07;;;;;;;6.86;68.67;96745.63;6125413;23;20175;-84
2022/12/27 07:16:53;;;;;;;3.80;1.80;;;;;;;6.86;68.77;96744.81;6124976;23;20175;-85
2022/12/27 07:19:20;;;;;;;2.03;1.53;;;;;;;6.87;68.83;96751.56;6125355;23;20179;-85
2022/12/27 07:21:46;;;;;;;4.13;1.57;;;;;;;6.87;68.99;96747.25;6124106;23;20160;-81
2022/12/27 07:24:13;;;;;;;1.70;1.50;;;;;;;6.90;68.76;96747.00;6125121;23;20179;-81
2022/12/27 07:26:40;;;;;;;1.87;1.33;;;;;;;6.90;68.40;96747.00;6126924;23;20199;-83
2022/12/27 07:29:07;;;;;;;2.73;1.60;;;;;;;6.89;68.32;96747.13;6124462;23;20186;-84
2022/12/27 07:31:33;;;;;;;2.67;1.70;;;;;;;6.85;68.16;96746.56;6125696;23;20160;-85
2022/12/27 07:34:01;;;;;;;2.37;1.50;;;;;;;6.85;68.48;96746.56;6125556;23;20199;-85
2022/12/27 07:36:31;;;;;;;1.50;1.40;;;;;;;6.86;68.50;96752.50;6125212;23;20175;-85
2022/12/27 07:38:58;;;;;;;2.50;1.63;;;;;;;6.86;68.47;96747.38;6124628;23;20795;-84
2022/12/27 07:41:25;;;;;;;19.83;15.00;;;;;;;6.76;68.90;96752.41;6125923;23;20172;-84
2022/12/27 07:43:53;;;;;;;3.73;3.07;;;;;;;6.76;69.20;96752.41;6124991;23;20227;-83
2022/12/27 07:46:21;;;;;;;3.67;2.80;;;;;;;6.74;69.61;96751.72;6123950;23;20195;-85
2022/12/27 07:48:48;;;;;;;4.10;2.30;;;;;;;6.77;69.14;96751.47;6124153;23;20175;-85
2022/12/27 07:51:16;;;;;;;2.10;1.90;;;;;;;6.81;68.79;96764.84;6125425;23;20702;-85
2022/12/27 07:53:42;;;;;;;2.70;1.73;;;;;;;6.86;68.15;96766.09;6125436;23;20195;-85
2022/12/27 07:56:11;;;;;;;1.83;1.57;;;;;;;6.90;68.14;96753.88;6125305;23;20171;-84
2022/12/27 07:58:39;;;;;;;2.30;1.67;;;;;;;6.98;68.17;96764.28;6124932;23;20182;-84
2022/12/27 08:01:08;;;;;;;2.33;1.60;;;;;;;7.04;68.06;96758.66;6124608;23;20698;-84
2022/12/27 08:03:35;;;;;;;2.90;1.70;;;;;;;7.07;68.45;96771.22;6124846;23;20203;-84
2022/12/27 08:06:01;;;;;;;1.67;1.53;;;;;;;7.15;68.35;96773.94;6124299;23;20250;-85
2022/12/27 08:08:39;;;;;;;1.87;1.50;;;;;;;7.25;67.09;96771.47;6124851;23;20841;-84
2022/12/27 08:11:05;;;;;;;2.33;1.70;;;;;;;7.45;66.68;96775.75;6125121;23;20639;-85
2022/12/27 08:13:32;;;;;;;1.83;1.70;;;;;;;7.60;65.78;96774.47;6124258;23;20223;-86
2022/12/27 08:15:59;;;;;;;4.10;2.90;;;;;;;7.75;65.08;96776.66;6124726;23;20186;-86
2022/12/27 08:18:27;;;;;;;3.63;2.83;;;;;;;7.86;64.42;96768.91;6125215;23;20179;-85
2022/12/27 08:20:54;;;;;;;8.60;5.77;;;;;;;7.99;63.81;96769.47;6121884;23;20210;-86
2022/12/27 08:23:21;;;;;;;5.63;4.00;;;;;;;8.14;63.45;96757.06;6125148;23;20203;-85
2022/12/27 08:25:47;;;;;;;3.77;2.40;;;;;;;8.26;62.47;96759.41;6124715;23;20518;-84
2022/12/27 08:28:16;;;;;;;2.73;1.87;;;;;;;8.37;62.07;96757.69;6124467;23;20545;-85
2022/12/27 08:30:46;;;;;;;2.07;1.60;;;;;;;8.49;61.43;96759.97;6125352;23;20183;-85
2022/12/27 08:33:13;;;;;;;1.53;1.40;;;;;;;8.58;61.20;96761.75;6124674;23;20199;-85
2022/12/27 08:35:43;;;;;;;2.57;1.70;;;;;;;8.61;60.85;96755.53;6124391;23;20282;-85
2022/12/27 08:38:09;;;;;;;1.87;1.47;;;;;;;8.76;60.47;96761.88;6125196;23;20175;-85
2022/12/27 08:40:40;;;;;;;3.00;1.70;;;;;;;8.93;59.64;96760.38;6125304;23;20200;-85
2022/12/27 08:43:07;;;;;;;8.93;1.70;;;;;;;9.07;59.43;96759.94;6125981;23;20199;-83
2022/12/27 08:45:33;;;;;;;1.50;1.40;;;;;;;9.15;59.23;96756.69;6125422;23;20176;-85
2022/12/27 08:48:00;;;;;;;1.83;1.70;;;;;;;9.28;59.21;96752.84;6124200;23;20626;-86
2022/12/27 08:50:27;;;;;;;2.93;1.33;;;;;;;9.29;58.49;96767.31;6124441;23;20179;-85
2022/12/27 08:52:58;;;;;;;1.50;1.40;;;;;;;9.38;58.57;96768.25;6126633;23;20202;-85
2022/12/27 08:55:25;;;;;;;1.87;1.60;;;;;;;9.46;58.91;96772.69;6129747;23;20160;-85
2022/12/27 08:57:56;;;;;;;1.83;1.50;;;;;;;9.50;58.98;96774.03;6125894;23;20183;-83
2022/12/27 09:00:22;;;;;;;2.13;1.50;;;;;;;9.60;58.94;96777.41;6129732;23;20184;-83
2022/12/27 09:02:49;;;;;;;10.27;2.27;;;;;;;9.68;59.16;96778.28;6130077;23;20604;-83
2022/12/27 09:05:15;;;;;;;13.60;3.67;;;;;;;9.78;59.59;96782.59;6130912;23;20184;-83
2022/12/27 09:07:42;;;;;;;6.07;2.37;;;;;;;9.92;59.29;96774.41;6130537;23;20203;-84
2022/12/27 09:10:10;;;;;;;11.57;3.17;;;;;;;10.10;58.86;96787.31;6131057;23;20183;-83
2022/12/27 09:12:36;;;;;;;4.97;2.10;;;;;;;10.14;58.53;96783.50;6129240;23;20317;-84
2022/12/27 09:15:03;;;;;;;2.30;1.47;;;;;;;10.13;58.58;96793.00;6126527;23;20240;-84
2022/12/27 09:17:29;;;;;;;2.20;1.70;;;;;;;10.20;58.88;96782.97;6128755;23;20186;-83
2022/12/27 09:19:56;;;;;;;20.17;3.37;;;;;;;10.28;58.60;96790.75;6128126;23;20528;-84
2022/12/27 09:22:22;;;;;;;14.17;3.17;;;;;;;10.41;57.97;96798.94;6125348;23;20195;-83
2022/12/27 09:24:49;;;;;;;5.30;2.20;;;;;;;10.46;57.28;96791.59;6125563;23;20179;-83
2022/12/27 09:27:16;;;;;;;8.73;1.83;;;;;;;10.50;56.85;96797.28;6125858;23;20199;-82
2022/12/27 09:29:43;;;;;;;17.33;5.87;;;;;;;10.53;56.76;96795.22;6130408;23;20697;-83
2022/12/27 09:32:09;;;;;;;10.47;3.23;;;;;;;10.81;56.95;96803.66;6129717;23;20195;-81
2022/12/27 09:34:36;;;;;;;5.13;1.53;;;;;;;10.90;54.80;96802.00;6130216;23;20164;-84
2022/12/27 09:37:02;;;;;;;4.47;1.50;;;;;;;10.99;54.39;96803.66;6129952;23;20180;-83
2022/12/27 09:39:29;;;;;;;11.33;1.90;;;;;;;11.04;53.62;96799.69;6131867;23;20187;-82
2022/12/27 09:42:01;;;;;;;14.73;2.83;;;;;;;10.89;53.49;96792.63;6131710;23;20206;-83
2022/12/27 09:44:34;;;;;;;11.80;4.70;;;;;;;10.95;53.57;96792.06;6130180;23;20163;-82
2022/12/27 09:47:08;;;;;;;9.40;1.53;;;;;;;10.82;52.48;96794.19;6129331;23;20206;-83
2022/12/27 09:49:38;;;;;;;3.37;2.10;;;;;;;10.95;53.04;96792.06;6126383;23;20191;-83
2022/12/27 09:52:12;;;;;;;3.73;1.33;;;;;;;10.88;52.88;96788.44;6127285;23;20195;-84
2022/12/27 09:54:50;;;;;;;1.37;1.17;;;;;;;10.94;52.41;96788.66;6127857;23;20179;-83
2022/12/27 09:57:23;;;;;;;5.20;1.57;;;;;;;10.99;52.89;96783.03;6127120;23;20160;-84
2022/12/27 09:59:57;;;;;;;1.00;0.90;;;;;;;10.97;50.71;96782.38;6126237;23;20164;-84
2022/12/27 10:02:25;;;;;;;1.13;1.00;;;;;;;11.00;50.68;96782.91;6126441;23;20199;-83
2022/12/27 10:04:53;;;;;;;4.03;1.23;;;;;;;11.16;51.10;96789.16;6132998;23;20487;-83
2022/12/27 10:07:28;;;;;;;1.23;0.90;;;;;;;11.23;50.86;96790.16;6130395;23;20207;-82
2022/12/27 10:10:02;;;;;;;2.60;1.00;;;;;;;11.39;50.05;96783.31;6131966;23;20160;-83
2022/12/27 10:12:52;;;;;;;1.77;1.03;;;;;;;11.34;48.41;96771.88;6129888;23;20206;-82
2022/12/27 10:15:26;;;;;;;2.13;1.13;;;;;;;11.34;48.65;96764.13;6129698;23;20167;-83
2022/12/27 10:18:03;;;;;;;3.17;1.80;;;;;;;11.32;49.28;96766.88;6129951;23;20166;-82
2022/12/27 10:20:45;;;;;;;2.03;1.37;;;;;;;11.31;46.72;96764.44;6126940;23;20167;-83
2022/12/27 10:23:17;;;;;;;7.57;4.10;;;;;;;11.25;46.21;96768.41;6126217;23;20207;-82
2022/12/27 10:25:46;;;;;;;3.90;1.10;;;;;;;11.19;46.17;96763.03;6128054;23;20622;-82
2022/12/27 10:28:15;;;;;;;1.20;1.00;;;;;;;11.15;46.16;96767.72;6131310;23;20665;-83
2022/12/27 10:30:45;;;;;;;3.37;1.10;;;;;;;11.19;45.41;96760.47;6128322;23;20215;-83
2022/12/27 10:33:20;;;;;;;2.83;1.00;;;;;;;11.21;44.96;96764.53;6128883;23;20196;-82
2022/12/27 10:35:47;;;;;;;1.33;0.70;;;;;;;11.10;44.38;96761.38;6129342;23;20163;-83
2022/12/27 10:38:13;;;;;;;1.40;1.03;;;;;;;10.86;43.76;96754.28;6131124;23;20160;-84
2022/12/27 10:40:50;;;;;;;0.83;0.70;;;;;;;10.69;45.02;96758.50;6129635;23;20175;-82
2022/12/27 10:43:19;;;;;;;0.80;0.80;;;;;;;10.72;45.12;96763.34;6130908;23;20195;-83
2022/12/27 10:45:47;;;;;;;0.90;0.70;;;;;;;10.75;45.54;96751.94;6128684;23;20243;-83
2022/12/27 10:48:17;;;;;;;0.70;0.60;;;;;;;10.66;45.57;96759.59;6130925;23;20212;-82
2022/12/27 10:50:47;;;;;;;1.90;0.83;;;;;;;10.85;45.56;96758.63;6132081;23;20176;-82
2022/12/27 10:53:31;;;;;;;1.07;0.90;;;;;;;10.94;45.54;96759.50;6132039;23;20324;-84
2022/12/27 10:56:11;;;;;;;1.23;1.00;;;;;;;10.88;45.19;96758.34;6131308;23;20174;-84
2022/12/27 10:58:40;;;;;;;2.43;1.80;;;;;;;11.02;45.75;96750.06;6127267;23;20230;-83
2022/12/27 11:01:15;;;;;;;2.03;1.20;;;;;;;11.20;44.73;96747.44;6127577;23;20179;-83
2022/12/27 11:03:41;;;;;;;0.93;0.87;;;;;;;11.28;43.91;96744.09;6126885;23;20203;-82
2022/12/27 11:06:23;;;;;;;3.60;0.80;;;;;;;11.39;43.96;96751.56;6126309;23;20218;-83
2022/12/27 11:08:52;;;;;;;2.27;0.90;;;;;;;11.48;44.14;96748.09;6126513;23;20184;-83
2022/12/27 11:11:21;;;;;;;1.37;0.90;;;;;;;11.55;44.00;96748.28;6126781;23;20176;-84
2022/12/27 11:13:48;;;;;;;4.20;3.23;;;;;;;11.37;44.53;96732.88;6127200;23;20199;-84
2022/12/27 11:16:22;;;;;;;3.30;2.20;;;;;;;11.43;44.79;96733.06;6127191;23;20180;-83
2022/12/27 11:18:53;;;;;;;1.23;1.03;;;;;;;11.44;44.36;96733.88;6125913;23;20160;-83
2022/12/27 11:21:20;;;;;;;3.23;0.80;;;;;;;11.45;45.44;96734.69;6125548;23;20257;-83
2022/12/27 11:23:51;;;;;;;0.80;0.80;;;;;;;11.52;44.95;96720.22;6126078;23;20204;-82
2022/12/27 11:26:20;;;;;;;0.83;0.83;;;;;;;11.51;45.81;96718.59;6127138;23;20171;-82
2022/12/27 11:28:51;;;;;;;1.00;0.77;;;;;;;11.50;44.59;96717.81;6125439;23;20200;-84
2022/12/27 11:31:28;;;;;;;1.00;0.90;;;;;;;11.43;45.19;96724.53;6125673;23;20542;-82
2022/12/27 11:33:56;;;;;;;0.80;0.80;;;;;;;11.53;44.39;96714.09;6123810;23;20242;-83
2022/12/27 11:36:25;;;;;;;1.93;1.00;;;;;;;11.56;45.11;96719.75;6125802;23;20202;-83
2022/12/27 11:38:52;;;;;;;1.07;0.77;;;;;;;11.51;44.50;96716.84;6126392;23;20180;-83
2022/12/27 11:41:28;;;;;;;0.90;0.80;;;;;;;11.50;44.92;96717.81;6125409;23;20180;-83
2022/12/27 11:44:01;;;;;;;1.00;0.83;;;;;;;11.63;44.57;96710.44;6126376;23;20195;-83
2022/12/27 11:46:39;;;;;;;1.37;0.97;;;;;;;11.34;45.43;96712.56;6127020;23;20168;-82
2022/12/27 11:49:13;;;;;;;1.40;1.10;;;;;;;11.30;45.49;96701.75;6126723;23;20285;-82
2022/12/27 11:52:05;;;;;;;1.70;1.10;;;;;;;11.02;45.98;96697.69;6127637;23;20163;-82
2022/12/27 11:55:02;;;;;;;1.20;0.90;;;;;;;10.77;46.85;96711.41;6126004;23;20171;-81
2022/12/27 11:57:40;;;;;;;1.40;1.30;;;;;;;10.63;47.81;96705.00;6126895;23;20596;-83
2022/12/27 12:00:15;;;;;;;2.37;1.20;;;;;;;10.83;48.24;96713.34;6126501;23;20166;-84
2022/12/27 12:02:59;;;;;;;2.23;1.00;;;;;;;10.82;47.95;96711.72;6126373;23;20194;-83
2022/12/27 12:05:42;;;;;;;2.33;0.93;;;;;;;10.77;48.49;96719.94;6126502;23;20187;-83
2022/12/27 12:08:36;;;;;;;1.90;0.93;;;;;;;10.65;49.06;96714.19;6125708;23;20186;-83
2022/12/27 12:11:16;;;;;;;3.37;1.27;;;;;;;10.63;51.89;96708.38;6126311;23;20171;-82
2022/12/27 12:14:34;;;;;;;1.40;1.07;;;;;;;10.57;50.74;96715.91;6125512;23;20205;-81
2022/12/27 12:17:16;;;;;;;1.10;0.90;;;;;;;10.52;53.97;96713.78;6125038;23;20238;-83
2022/12/27 12:20:14;;;;;;;2.10;1.20;;;;;;;10.63;51.29;96707.56;6125069;23;20164;-82
2022/12/27 12:22:50;;;;;;;1.23;1.00;;;;;;;10.69;52.90;96701.81;6099415;23;20195;-83
2022/12/27 12:25:42;;;;;;;2.40;1.10;;;;;;;10.61;50.45;96697.41;6125378;23;20159;-83
2022/12/27 12:28:54;;;;;;;2.77;1.20;;;;;;;10.45;49.51;96699.84;6124779;23;20654;-84
2022/12/27 12:31:35;;;;;;;1.83;0.90;;;;;;;10.49;50.25;96700.38;6007941;23;20656;-83
2022/12/27 12:34:25;;;;;;;1.53;1.00;;;;;;;10.41;49.60;96701.09;6112485;23;20251;-83
2022/12/27 12:37:03;;;;;;;1.80;1.10;;;;;;;10.49;49.77;96702.94;6125844;23;20164;-83
2022/12/27 12:39:49;;;;;;;2.57;1.10;;;;;;;10.52;49.96;96692.34;6124973;23;20164;-83
2022/12/27 12:42:21;;;;;;;1.50;1.10;;;;;;;10.46;50.10;96698.91;6125576;23;20203;-83
2022/12/27 12:45:01;;;;;;;1.90;1.00;;;;;;;10.41;50.34;96695.94;6134141;23;20164;-84
2022/12/27 12:47:50;;;;;;;2.67;0.93;;;;;;;10.33;50.36;96691.56;6127576;23;20183;-84
2022/12/27 12:50:28;;;;;;;3.00;1.10;;;;;;;10.33;50.26;96693.31;6127944;23;20160;-84
2022/12/27 12:53:16;;;;;;;1.57;1.33;;;;;;;10.25;50.77;96688.09;6126038;23;20258;-82
2022/12/27 12:55:53;;;;;;;1.30;1.20;;;;;;;10.33;50.68;96690.75;6125963;23;20164;-83
2022/12/27 12:58:51;;;;;;;1.80;1.30;;;;;;;10.54;50.79;96690.44;6125781;23;20218;-83
2022/12/27 13:01:29;;;;;;;1.20;1.10;;;;;;;10.78;50.49;96684.66;6125163;23;20160;-83
2022/12/27 13:04:16;;;;;;;1.23;1.10;;;;;;;10.92;50.47;96678.97;6126734;23;20196;-82
2022/12/27 13:07:01;;;;;;;2.47;1.10;;;;;;;10.98;50.57;96678.34;6127075;23;20246;-82
2022/12/27 13:09:45;;;;;;;1.73;1.23;;;;;;;11.02;50.60;96674.50;6124809;23;20608;-81
2022/12/27 13:12:16;;;;;;;3.70;2.63;;;;;;;10.93;50.58;96678.81;6126821;23;20199;-83
2022/12/27 13:15:00;;;;;;;10.27;7.53;;;;;;;10.89;50.84;96666.38;6130146;23;20586;-84
2022/12/27 13:17:35;;;;;;;1.87;1.67;;;;;;;10.69;51.08;96666.56;6126054;23;20164;-82
2022/12/27 13:20:18;;;;;;;3.27;1.23;;;;;;;10.79;51.11;96668.22;6126622;23;20182;-84
2022/12/27 13:22:57;;;;;;;3.30;1.10;;;;;;;10.89;51.09;96674.13;6127492;23;20210;-82
2022/12/27 13:25:36;;;;;;;1.43;1.10;;;;;;;11.00;51.75;96676.41;6124115;23;20171;-81
2022/12/27 13:28:22;;;;;;;1.10;1.00;;;;;;;10.79;51.32;96671.63;6125164;23;20584;-82
2022/12/27 13:30:58;;;;;;;1.67;1.00;;;;;;;10.71;51.90;96671.56;6125296;23;21064;-83